Time;durP1;ratioP1;P1;durP2;ratioP2;P2;SDS_P1;SDS_P2;PMS_P1;PMS_P2;Temp;Humidity;BMP_temperature;BMP_pressure;BME280_temperature;BME280_humidity;BME280_pressure;Samples;Min_cycle;Max_cycle;Signal;HPM_P1;HPM_P2
2022/06/05 04:03:37;;;;;;;6.63;6.13;;;18.10;99.90;;;;;;5889676;23;20905;-66
2022/06/05 04:06:11;;;;;;;6.60;6.00;;;18.10;99.90;;;;;;4978054;28;20493;-64
2022/06/05 04:08:38;;;;;;;7.37;5.80;;;18.10;99.90;;;;;;4974615;28;20943;-65
2022/06/05 04:11:10;;;;;;;6.13;5.50;;;18.10;99.90;;;;;;4974495;28;20395;-66
2022/06/05 04:13:36;;;;;;;7.93;5.53;;;18.20;99.90;;;;;;4973607;28;21001;-65
2022/06/05 04:16:08;;;;;;;6.73;6.13;;;18.20;99.90;;;;;;4973298;28;20513;-66
2022/06/05 04:18:33;;;;;;;5.67;5.17;;;18.20;99.90;;;;;;4974231;28;20431;-66
2022/06/05 04:20:59;;;;;;;6.70;6.10;;;18.20;99.90;;;;;;4974368;28;20388;-66
2022/06/05 04:23:24;;;;;;;6.13;5.63;;;18.20;99.90;;;;;;4972745;28;20202;-63
2022/06/05 04:25:50;;;;;;;7.00;6.40;;;18.20;99.90;;;;;;4974339;28;20526;-65
2022/06/05 04:28:16;;;;;;;6.77;6.17;;;18.20;99.90;;;;;;4974335;28;20229;-66
2022/06/05 04:30:41;;;;;;;7.00;6.30;;;18.20;99.90;;;;;;4974074;28;20220;-65
2022/06/05 04:33:07;;;;;;;7.63;6.87;;;18.10;99.90;;;;;;4974685;28;20582;-68
2022/06/05 04:35:34;;;;;;;7.57;6.80;;;18.10;99.90;;;;;;4977943;28;20174;-69
2022/06/05 04:37:59;;;;;;;7.33;6.67;;;18.00;99.90;;;;;;4978300;28;20392;-70
2022/06/05 04:40:25;;;;;;;8.03;7.30;;;18.00;99.90;;;;;;4978367;28;20410;-68
2022/06/05 04:42:51;;;;;;;6.13;5.60;;;18.00;99.90;;;;;;4977700;28;20180;-68
2022/06/05 04:45:17;;;;;;;8.37;7.43;;;18.00;99.90;;;;;;4978400;28;20172;-68
2022/06/05 04:47:42;;;;;;;7.73;7.07;;;18.00;99.90;;;;;;4978232;28;20656;-66
2022/06/05 04:50:09;;;;;;;7.93;7.17;;;17.90;99.90;;;;;;4978244;28;20650;-65
2022/06/05 04:52:35;;;;;;;7.87;7.17;;;18.00;99.90;;;;;;4977985;28;20172;-66
2022/06/05 04:55:01;;;;;;;7.57;6.83;;;18.00;99.90;;;;;;4978073;28;20986;-65
2022/06/05 04:57:27;;;;;;;7.50;6.70;;;17.90;99.90;;;;;;4977824;28;20171;-66
2022/06/05 04:59:52;;;;;;;7.83;6.97;;;17.90;99.90;;;;;;4977769;28;20481;-65
2022/06/05 05:02:18;;;;;;;7.73;6.90;;;17.90;99.90;;;;;;4977729;28;21124;-65
2022/06/05 05:04:47;;;;;;;7.47;6.60;;;17.90;99.90;;;;;;4977631;28;20857;-67
2022/06/05 05:07:14;;;;;;;8.00;6.93;;;17.90;99.90;;;;;;4977822;28;20422;-66
2022/06/05 05:09:40;;;;;;;7.47;6.67;;;17.80;99.90;;;;;;4977951;28;20383;-65
2022/06/05 05:12:08;;;;;;;7.57;6.87;;;17.80;99.90;;;;;;4977529;28;20426;-65
2022/06/05 05:14:34;;;;;;;8.47;7.63;;;17.80;99.90;;;;;;4977191;28;20456;-66
2022/06/05 05:16:59;;;;;;;8.17;7.43;;;17.80;99.90;;;;;;4978088;28;20464;-66
2022/06/05 05:19:25;;;;;;;7.70;7.00;;;17.80;99.90;;;;;;4977562;28;20176;-66
2022/06/05 05:21:50;;;;;;;9.10;8.20;;;17.80;99.90;;;;;;4977910;28;20170;-65
2022/06/05 05:24:16;;;;;;;9.60;8.30;;;17.80;99.90;;;;;;4976929;28;20199;-65
2022/06/05 05:26:42;;;;;;;11.10;9.93;;;17.80;99.90;;;;;;4977662;28;20189;-66
2022/06/05 05:29:07;;;;;;;7.83;7.13;;;17.70;99.90;;;;;;4977675;28;20184;-67
2022/06/05 05:31:39;;;;;;;10.00;9.00;;;17.70;99.90;;;;;;4977202;28;20270;-66
2022/06/05 05:34:07;;;;;;;9.57;8.57;;;17.70;99.90;;;;;;4976878;28;20269;-65
2022/06/05 05:36:33;;;;;;;10.23;8.00;;;17.70;99.90;;;;;;4977601;28;20388;-64
2022/06/05 05:44:30;;;;;;;9.40;8.40;;;17.60;99.90;;;;;;4975794;28;20458;-65
2022/06/05 05:46:56;;;;;;;8.50;7.60;;;17.60;99.90;;;;;;4977025;28;20421;-66
2022/06/05 05:49:21;;;;;;;9.00;8.07;;;17.60;99.90;;;;;;4976877;28;20746;-64
2022/06/05 05:51:47;;;;;;;9.30;8.40;;;17.60;99.90;;;;;;4976945;28;20178;-66
2022/06/05 05:54:13;;;;;;;9.63;8.80;;;17.60;99.90;;;;;;4976459;28;20573;-64
2022/06/05 05:56:39;;;;;;;8.80;7.90;;;17.60;99.90;;;;;;4975765;28;20171;-67
2022/06/05 05:59:05;;;;;;;10.63;9.60;;;17.50;99.90;;;;;;4976846;28;20237;-64
2022/06/05 06:01:30;;;;;;;9.50;8.23;;;17.50;99.90;;;;;;4976398;28;20406;-64
2022/06/05 06:03:56;;;;;;;9.97;9.03;;;17.40;99.90;;;;;;4976255;28;20408;-64
2022/06/05 06:06:31;;;;;;;10.43;8.70;;;17.30;99.90;;;;;;4977245;28;20205;-67
2022/06/05 06:08:58;;;;;;;10.50;8.77;;;17.30;99.90;;;;;;4977014;28;20193;-66
2022/06/05 06:11:24;;;;;;;10.33;9.20;;;17.30;99.90;;;;;;4976839;28;20430;-66
2022/06/05 06:13:50;;;;;;;15.97;10.23;;;17.30;99.90;;;;;;4975998;28;20454;-66
2022/06/05 06:16:15;;;;;;;10.27;9.27;;;17.30;99.90;;;;;;4976695;28;20468;-66
2022/06/05 06:18:41;;;;;;;11.50;9.07;;;17.30;99.90;;;;;;4976716;28;20867;-65
2022/06/05 06:21:07;;;;;;;11.10;9.77;;;17.30;99.90;;;;;;4976527;28;20173;-62
2022/06/05 06:23:32;;;;;;;11.53;10.30;;;17.30;99.90;;;;;;4976042;28;20209;-62
2022/06/05 06:25:58;;;;;;;8.40;7.60;;;17.20;99.90;;;;;;4975912;28;20432;-68
2022/06/05 06:28:24;;;;;;;10.87;9.77;;;17.30;99.90;;;;;;4976693;28;20172;-67
2022/06/05 06:30:49;;;;;;;9.53;8.60;;;17.20;99.90;;;;;;4976347;28;20264;-65
2022/06/05 06:33:15;;;;;;;9.17;8.27;;;17.20;99.90;;;;;;4975775;28;20485;-64
2022/06/05 06:35:41;;;;;;;8.83;7.10;;;17.20;99.90;;;;;;4976438;28;20184;-66
2022/06/05 06:38:07;;;;;;;8.73;7.83;;;17.10;99.90;;;;;;4976364;28;20240;-65
2022/06/05 06:40:35;;;;;;;8.73;7.90;;;17.10;99.90;;;;;;4975848;28;20475;-65
2022/06/05 06:43:02;;;;;;;8.60;7.70;;;17.10;99.90;;;;;;4975670;28;20395;-65
2022/06/05 06:45:28;;;;;;;8.03;7.30;;;17.10;99.90;;;;;;4975069;28;20416;-66
2022/06/05 06:47:54;;;;;;;8.80;7.93;;;17.10;99.90;;;;;;4976034;28;20449;-66
2022/06/05 06:50:20;;;;;;;7.33;6.60;;;17.00;99.90;;;;;;4976178;28;20833;-67
2022/06/05 06:52:45;;;;;;;8.23;7.13;;;17.00;99.90;;;;;;4975686;28;20263;-63
2022/06/05 06:55:13;;;;;;;6.20;5.60;;;16.90;99.90;;;;;;4975678;28;20613;-67
2022/06/05 06:57:39;;;;;;;6.70;6.00;;;16.90;99.90;;;;;;4974854;28;20176;-66
2022/06/05 07:00:06;;;;;;;7.00;5.70;;;16.90;99.90;;;;;;4976016;28;20492;-68
2022/06/05 07:02:31;;;;;;;6.90;6.30;;;16.90;99.90;;;;;;4975392;28;20177;-69
2022/06/05 07:04:57;;;;;;;7.23;6.53;;;16.90;99.90;;;;;;4975531;28;20503;-69
2022/06/05 07:07:22;;;;;;;8.90;7.47;;;16.80;99.90;;;;;;4975652;28;20176;-66
2022/06/05 07:09:48;;;;;;;7.93;7.23;;;16.80;99.90;;;;;;4975359;28;20293;-67
2022/06/05 07:12:14;;;;;;;9.10;7.53;;;16.80;99.90;;;;;;4974812;28;20219;-67
2022/06/05 07:14:39;;;;;;;9.27;8.37;;;16.80;99.90;;;;;;4975070;28;20263;-66
2022/06/05 07:17:05;;;;;;;7.60;6.70;;;16.80;99.90;;;;;;4975560;28;20438;-67
2022/06/05 07:19:31;;;;;;;9.23;6.60;;;16.80;99.90;;;;;;4975421;28;20177;-68
2022/06/05 07:21:56;;;;;;;8.90;8.00;;;16.80;99.90;;;;;;4975410;28;20170;-65
2022/06/05 07:24:22;;;;;;;10.23;8.70;;;16.80;99.90;;;;;;4974687;28;20204;-67
2022/06/05 07:26:48;;;;;;;9.00;7.97;;;16.80;99.90;;;;;;4975462;28;20184;-67
2022/06/05 07:29:14;;;;;;;10.23;9.30;;;16.70;99.90;;;;;;4975361;28;20232;-67
2022/06/05 07:31:40;;;;;;;10.33;9.33;;;16.70;99.90;;;;;;4975257;28;20507;-66
2022/06/05 07:34:08;;;;;;;11.50;9.63;;;16.70;99.90;;;;;;4974856;28;20806;-65
2022/06/05 07:36:33;;;;;;;12.70;9.90;;;16.60;99.90;;;;;;4974765;28;20399;-69
2022/06/05 07:39:02;;;;;;;11.23;7.90;;;16.60;99.90;;;;;;4974400;28;20787;-69
2022/06/05 07:41:31;;;;;;;9.27;8.37;;;16.50;99.90;;;;;;4974644;28;20180;-67
2022/06/05 07:43:57;;;;;;;7.90;7.10;;;16.50;99.90;;;;;;4974283;28;20466;-66
2022/06/05 07:46:23;;;;;;;7.80;7.00;;;16.50;99.90;;;;;;4974861;28;20416;-67
2022/06/05 07:48:49;;;;;;;8.60;7.80;;;16.50;99.90;;;;;;4974706;28;20791;-68
2022/06/05 07:54:28;;;;;;;6.73;5.83;;;16.60;99.90;;;;;;4973808;28;20259;-65
2022/06/05 07:57:05;;;;;;;4.63;4.20;;;16.70;99.90;;;;;;4974612;28;20882;-67
2022/06/05 07:59:35;;;;;;;3.47;3.20;;;16.70;99.90;;;;;;4974782;28;20382;-68
2022/06/05 08:02:07;;;;;;;4.30;3.90;;;16.70;99.90;;;;;;4974086;28;20379;-70
2022/06/05 08:04:34;;;;;;;4.37;4.00;;;16.70;99.90;;;;;;4974438;28;20434;-68
2022/06/05 08:07:00;;;;;;;5.20;3.40;;;16.70;99.90;;;;;;4973917;28;20799;-68
2022/06/05 08:09:27;;;;;;;3.63;3.30;;;16.70;99.90;;;;;;4974380;28;20397;-68
2022/06/05 08:11:53;;;;;;;3.43;3.23;;;16.80;99.90;;;;;;4974131;28;20418;-69
2022/06/05 08:14:19;;;;;;;3.20;3.00;;;16.80;99.90;;;;;;4973732;28;20450;-67
2022/06/05 08:16:46;;;;;;;5.00;4.20;;;16.90;99.90;;;;;;4974454;28;20173;-67
2022/06/05 08:19:18;;;;;;;5.23;4.07;;;17.00;99.90;;;;;;4974590;28;20213;-68
2022/06/05 08:21:45;;;;;;;5.30;2.50;;;17.10;99.90;;;;;;4974311;28;20423;-67
2022/06/05 08:24:11;;;;;;;4.57;2.87;;;17.30;99.90;;;;;;4973732;28;20409;-68
2022/06/05 08:26:37;;;;;;;3.43;2.87;;;17.30;99.90;;;;;;4974664;28;20730;-66
2022/06/05 08:29:03;;;;;;;3.23;2.77;;;17.40;99.90;;;;;;4973009;28;20182;-67
2022/06/05 08:31:29;;;;;;;2.93;2.73;;;17.60;99.90;;;;;;4974251;28;20417;-67
2022/06/05 08:33:57;;;;;;;2.43;2.33;;;17.70;99.90;;;;;;4972172;28;20485;-67
2022/06/05 08:36:23;;;;;;;2.73;2.53;;;17.90;99.90;;;;;;4973659;28;20485;-69
2022/06/05 08:41:48;;;;;;;4.83;3.90;;;18.30;99.90;;;;;;4974363;28;20884;-67
2022/06/05 08:44:41;;;;;;;2.60;2.40;;;18.60;99.90;;;;;;4973539;28;20435;-69
2022/06/05 08:47:21;;;;;;;1.80;1.70;;;18.90;99.90;;;;;;4969752;28;20518;-69
2022/06/05 08:49:58;;;;;;;2.80;1.57;;;19.20;99.90;;;;;;4973060;28;20394;-65
2022/06/05 08:52:42;;;;;;;2.03;1.93;;;19.50;99.90;;;;;;4973313;28;20402;-67
2022/06/05 08:55:17;;;;;;;1.70;1.60;;;19.80;99.90;;;;;;4973645;28;20490;-66
2022/06/05 08:58:05;;;;;;;1.97;1.83;;;20.00;99.90;;;;;;4973835;28;20378;-66
2022/06/05 09:00:36;;;;;;;1.43;1.33;;;20.30;99.90;;;;;;4974032;28;20411;-68
2022/06/05 09:03:10;;;;;;;2.17;1.40;;;20.40;99.90;;;;;;4973312;28;20758;-66
2022/06/05 09:05:47;;;;;;;1.60;1.50;;;20.60;99.90;;;;;;4973398;28;20460;-66
2022/06/05 09:08:16;;;;;;;1.27;1.27;;;20.90;99.90;;;;;;4973771;28;20414;-66
2022/06/05 09:10:51;;;;;;;1.30;1.20;;;21.10;99.90;;;;;;4973509;28;20760;-67
2022/06/05 09:13:25;;;;;;;2.60;1.40;;;21.30;99.90;;;;;;4973362;28;20810;-64
2022/06/05 09:16:02;;;;;;;4.10;1.60;;;21.40;99.90;;;;;;4973609;28;20954;-66
2022/06/05 09:18:39;;;;;;;1.73;1.63;;;21.60;99.90;;;;;;4972980;28;20420;-67
2022/06/05 09:21:25;;;;;;;2.63;1.93;;;21.80;99.90;;;;;;4975082;28;20911;-66
2022/06/05 09:23:50;;;;;;;2.97;1.90;;;22.00;99.90;;;;;;4976889;28;20421;-68
2022/06/05 09:26:42;;;;;;;2.00;1.90;;;22.10;99.90;;;;;;4977671;28;20477;-67
2022/06/05 09:29:28;;;;;;;1.73;1.60;;;22.10;99.90;;;;;;4975076;28;20217;-69
2022/06/05 09:32:20;;;;;;;1.60;1.50;;;22.00;99.90;;;;;;4977263;28;20481;-67
2022/06/05 09:34:56;;;;;;;2.47;1.73;;;22.10;99.90;;;;;;4976509;28;20440;-68
2022/06/05 09:37:30;;;;;;;1.97;1.87;;;22.30;99.90;;;;;;4975975;28;20781;-66
2022/06/05 09:40:22;;;;;;;2.37;2.17;;;22.50;99.90;;;;;;4976980;28;20370;-68
2022/06/05 09:42:53;;;;;;;1.40;1.30;;;22.80;99.90;;;;;;4969213;28;20445;-66
2022/06/05 09:45:27;;;;;;;2.10;2.00;;;22.90;99.90;;;;;;4976941;28;20410;-67
2022/06/05 09:48:14;;;;;;;1.60;1.30;;;22.90;99.90;;;;;;4976744;28;20499;-67
2022/06/05 09:50:41;;;;;;;1.20;1.10;;;23.00;99.90;;;;;;4977063;28;20424;-66
2022/06/05 09:53:15;;;;;;;0.90;0.90;;;23.40;99.90;;;;;;4976549;28;20473;-67
2022/06/05 09:56:09;;;;;;;0.70;0.70;;;23.80;99.90;;;;;;4976685;28;20417;-67
2022/06/05 09:58:46;;;;;;;1.00;0.90;;;23.90;99.90;;;;;;4976799;28;20410;-67
2022/06/05 10:01:23;;;;;;;1.20;1.10;;;23.70;99.90;;;;;;4976789;28;20379;-68
2022/06/05 10:03:50;;;;;;;5.20;1.50;;;23.40;99.90;;;;;;4975938;28;20407;-67
2022/06/05 10:06:21;;;;;;;1.30;1.20;;;23.10;99.90;;;;;;4976200;28;20493;-67
2022/06/05 10:09:09;;;;;;;1.50;1.30;;;22.90;99.90;;;;;;4976176;28;20509;-66
2022/06/05 10:12:01;;;;;;;1.93;1.20;;;22.80;99.90;;;;;;4975939;28;20390;-67
2022/06/05 10:14:50;;;;;;;1.40;1.30;;;22.70;99.90;;;;;;4970605;28;20442;-68
2022/06/05 10:17:31;;;;;;;1.20;1.20;;;22.80;99.90;;;;;;4976438;28;20405;-66
2022/06/05 10:20:18;;;;;;;1.80;1.30;;;22.90;99.90;;;;;;4976764;28;20437;-65
2022/06/05 10:23:12;;;;;;;2.03;1.63;;;23.00;99.90;;;;;;4976294;28;20406;-66
2022/06/05 10:25:40;;;;;;;2.13;1.00;;;23.10;99.90;;;;;;4976291;28;20447;-68
2022/06/05 10:28:28;;;;;;;1.13;1.10;;;23.20;99.90;;;;;;4957717;28;20412;-66
2022/06/05 10:31:09;;;;;;;1.63;1.40;;;23.30;99.90;;;;;;4975498;28;20404;-66
2022/06/05 10:34:19;;;;;;;1.13;1.13;;;23.30;99.90;;;;;;4975500;28;20441;-67
2022/06/05 10:36:48;;;;;;;1.23;1.13;;;23.40;99.90;;;;;;4976291;28;20413;-69
2022/06/05 10:39:23;;;;;;;0.80;0.80;;;23.50;99.90;;;;;;4975966;28;20799;-66
2022/06/05 10:42:12;;;;;;;1.43;1.33;;;23.50;99.90;;;;;;4975728;28;20437;-67
2022/06/05 10:44:42;;;;;;;1.33;1.33;;;23.50;99.90;;;;;;4975976;28;20406;-67
2022/06/05 10:47:25;;;;;;;1.20;1.07;;;23.60;99.90;;;;;;4975670;28;20864;-67
2022/06/05 10:50:10;;;;;;;2.27;1.40;;;23.50;99.90;;;;;;4975995;28;20413;-66
2022/06/05 10:53:01;;;;;;;1.57;1.47;;;23.20;99.90;;;;;;4975675;28;20381;-68
2022/06/05 10:55:29;;;;;;;2.13;2.00;;;22.80;99.90;;;;;;4956042;28;20441;-67
2022/06/05 10:58:17;;;;;;;1.80;1.70;;;22.30;99.90;;;;;;4975376;28;20402;-66
2022/06/05 11:01:21;;;;;;;1.77;1.67;;;21.60;99.90;;;;;;4975551;28;20562;-67
2022/06/05 11:04:09;;;;;;;1.80;1.70;;;21.00;99.90;;;;;;4954360;28;20810;-66
2022/06/05 11:06:48;;;;;;;1.70;1.60;;;20.40;99.90;;;;;;4975634;28;20386;-67
2022/06/05 11:09:38;;;;;;;1.90;1.70;;;20.10;99.90;;;;;;4975345;28;20393;-66
2022/06/05 11:15:08;;;;;;;2.30;2.20;;;19.60;99.90;;;;;;4974953;28;20435;-68
2022/06/05 11:18:08;;;;;;;3.23;2.10;;;19.40;99.90;;;;;;4975096;28;20406;-65
2022/06/05 11:20:35;;;;;;;3.67;2.00;;;19.40;99.90;;;;;;4961230;28;20402;-68
2022/06/05 11:23:09;;;;;;;3.47;1.90;;;19.30;99.90;;;;;;4974408;28;20408;-66
2022/06/05 11:25:59;;;;;;;5.70;2.53;;;19.20;99.90;;;;;;4975140;28;20382;-65
2022/06/05 11:28:42;;;;;;;3.23;2.97;;;19.20;99.90;;;;;;4974904;28;20411;-65
2022/06/05 11:31:34;;;;;;;3.90;2.73;;;19.10;99.90;;;;;;4974809;28;20792;-69
2022/06/05 11:34:20;;;;;;;2.20;2.10;;;19.10;99.90;;;;;;4973517;28;20466;-66
2022/06/05 11:36:52;;;;;;;2.53;2.33;;;19.10;99.90;;;;;;4974916;28;20398;-63
2022/06/05 11:39:38;;;;;;;2.70;2.50;;;19.10;99.90;;;;;;4975073;28;20405;-65
2022/06/05 11:42:12;;;;;;;2.83;2.57;;;19.10;99.90;;;;;;4974251;28;20370;-65
2022/06/05 11:44:41;;;;;;;3.40;2.83;;;19.00;99.90;;;;;;4974567;28;20469;-65
2022/06/05 11:47:41;;;;;;;4.33;2.80;;;19.00;99.90;;;;;;4975008;28;20393;-66
2022/06/05 11:50:12;;;;;;;4.17;3.20;;;19.10;99.90;;;;;;4974464;28;20925;-66
2022/06/05 11:53:01;;;;;;;6.37;3.67;;;19.10;99.90;;;;;;4974238;28;20434;-68
2022/06/05 11:55:30;;;;;;;2.50;2.30;;;19.30;99.90;;;;;;4974810;28;20953;-67
2022/06/05 11:58:02;;;;;;;2.03;1.83;;;19.30;99.90;;;;;;4974669;28;20407;-66
2022/06/05 12:00:31;;;;;;;3.10;2.80;;;19.50;99.90;;;;;;4974855;28;20778;-67
2022/06/05 12:03:20;;;;;;;2.77;2.57;;;19.70;99.90;;;;;;4973695;28;20426;-65
2022/06/05 12:06:10;;;;;;;2.60;1.97;;;20.00;99.90;;;;;;4974648;28;20750;-66
2022/06/05 12:08:58;;;;;;;2.50;1.87;;;20.50;99.90;;;;;;4974281;28;20408;-67
2022/06/05 12:11:32;;;;;;;1.93;1.83;;;21.00;99.90;;;;;;4974390;28;20404;-67
2022/06/05 12:14:31;;;;;;;3.10;1.90;;;21.30;99.90;;;;;;4973855;28;20462;-66
2022/06/05 12:16:56;;;;;;;1.50;1.40;;;21.50;99.90;;;;;;4974305;28;20387;-67
2022/06/05 12:19:33;;;;;;;2.00;1.50;;;21.60;99.90;;;;;;4973793;28;20426;-65
2022/06/05 12:22:05;;;;;;;1.77;1.67;;;21.60;99.90;;;;;;4973802;28;20697;-67
2022/06/05 12:24:42;;;;;;;2.87;1.43;;;21.80;99.90;;;;;;4973925;28;20432;-66
2022/06/05 12:27:12;;;;;;;1.30;1.30;;;22.00;99.90;;;;;;4973750;28;20408;-67
2022/06/05 12:30:04;;;;;;;1.23;1.13;;;22.20;99.90;;;;;;4974360;28;20381;-67
2022/06/05 12:32:38;;;;;;;1.53;1.43;;;22.40;99.90;;;;;;4973494;28;20427;-67
2022/06/05 12:35:37;;;;;;;2.03;1.30;;;22.70;99.90;;;;;;4974118;28;20485;-67
2022/06/05 12:38:14;;;;;;;1.40;1.30;;;22.80;99.90;;;;;;4952064;28;20398;-67
2022/06/05 12:41:05;;;;;;;1.47;1.43;;;22.80;99.90;;;;;;4974311;28;20418;-66
2022/06/05 12:43:54;;;;;;;5.47;1.60;;;23.00;99.90;;;;;;4973686;28;20768;-65
2022/06/05 12:46:51;;;;;;;2.10;1.53;;;23.10;99.90;;;;;;4974179;28;20387;-68
2022/06/05 12:49:23;;;;;;;2.40;2.20;;;23.10;99.90;;;;;;4974015;28;20776;-68
2022/06/05 12:52:01;;;;;;;1.70;1.60;;;23.10;99.90;;;;;;4973902;28;20810;-66
2022/06/05 12:54:38;;;;;;;3.90;1.73;;;23.10;99.90;;;;;;4975261;28;20459;-67
2022/06/05 12:57:11;;;;;;;2.10;1.90;;;23.20;99.90;;;;;;4977816;28;20841;-65
2022/06/05 12:59:41;;;;;;;1.70;1.60;;;23.30;99.90;;;;;;4978070;28;20393;-67
2022/06/05 13:02:34;;;;;;;1.33;1.33;;;23.60;99.90;;;;;;4977573;28;20400;-66
2022/06/05 13:05:26;;;;;;;4.20;1.50;;;23.80;99.90;;;;;;4977269;28;20471;-66
2022/06/05 13:07:56;;;;;;;1.87;1.77;;;24.20;99.90;;;;;;4972332;28;20503;-66
2022/06/05 13:10:29;;;;;;;1.63;1.37;;;24.40;99.90;;;;;;4977823;28;20502;-66
2022/06/05 13:13:21;;;;;;;1.80;1.60;;;24.50;99.90;;;;;;4977332;28;20450;-66
2022/06/05 13:15:56;;;;;;;2.10;1.90;;;24.50;99.90;;;;;;4975710;28;20436;-68
2022/06/05 13:18:26;;;;;;;1.93;1.83;;;24.50;99.90;;;;;;4977566;28;20390;-66
2022/06/05 13:21:04;;;;;;;2.63;2.33;;;24.50;99.90;;;;;;4977509;28;20414;-66
2022/06/05 13:23:38;;;;;;;1.87;1.30;;;24.60;99.90;;;;;;4976991;28;20487;-68
2022/06/05 13:26:44;;;;;;;1.37;1.37;;;24.60;99.90;;;;;;4977854;28;20388;-67
2022/06/05 13:29:45;;;;;;;1.40;1.30;;;24.50;99.90;;;;;;4977661;28;20426;-65
2022/06/05 13:32:48;;;;;;;1.77;1.60;;;24.30;99.90;;;;;;4977241;28;20403;-68
2022/06/05 13:35:18;;;;;;;2.70;2.03;;;24.30;99.90;;;;;;4947197;29;20809;-66
2022/06/05 13:38:05;;;;;;;1.70;1.53;;;24.20;99.90;;;;;;4957929;28;20489;-67
2022/06/05 13:40:42;;;;;;;2.47;1.93;;;24.20;99.90;;;;;;4957995;28;20890;-67
2022/06/05 13:43:24;;;;;;;1.73;1.30;;;24.30;99.90;;;;;;4957218;28;20485;-67
2022/06/05 13:46:07;;;;;;;2.30;1.87;;;24.30;99.90;;;;;;4957777;28;20946;-65
2022/06/05 13:48:40;;;;;;;1.60;1.30;;;24.20;99.90;;;;;;4970127;28;20743;-66
2022/06/05 13:51:12;;;;;;;1.40;1.30;;;24.20;99.90;;;;;;4977196;28;20755;-70
2022/06/05 13:53:46;;;;;;;2.20;2.00;;;24.30;99.90;;;;;;4975016;28;21021;-68
2022/06/05 13:56:29;;;;;;;3.30;3.00;;;24.40;99.90;;;;;;4959454;28;20473;-69
2022/06/05 13:59:01;;;;;;;1.43;1.20;;;24.40;99.90;;;;;;4976897;28;20755;-69
2022/06/05 14:01:40;;;;;;;2.50;2.00;;;24.60;99.90;;;;;;4976855;28;20404;-67
2022/06/05 14:04:25;;;;;;;2.40;1.80;;;24.60;99.90;;;;;;4976173;28;20455;-65
2022/06/05 14:06:50;;;;;;;3.73;1.70;;;24.70;99.90;;;;;;4975897;28;20398;-68
2022/06/05 14:09:37;;;;;;;1.73;1.63;;;24.80;99.90;;;;;;4976673;28;20379;-67
2022/06/05 14:12:06;;;;;;;1.70;1.60;;;24.80;99.90;;;;;;4974890;28;20218;-68
2022/06/05 14:14:43;;;;;;;2.93;2.53;;;24.90;99.90;;;;;;4975957;28;20475;-69
2022/06/05 14:17:22;;;;;;;1.67;1.57;;;25.10;99.90;;;;;;4976253;28;20418;-66
2022/06/05 14:20:00;;;;;;;3.83;1.97;;;25.30;99.90;;;;;;4976121;28;20494;-68
2022/06/05 14:22:34;;;;;;;1.87;1.70;;;25.30;99.90;;;;;;4956488;28;20434;-65
2022/06/05 14:25:00;;;;;;;1.57;1.47;;;25.20;99.90;;;;;;4973141;28;20422;-65
2022/06/05 14:27:36;;;;;;;2.63;1.87;;;25.20;99.90;;;;;;4976178;28;20429;-68
2022/06/05 14:30:20;;;;;;;3.53;1.50;;;25.20;99.90;;;;;;4976219;28;20408;-66
2022/06/05 14:32:47;;;;;;;1.83;1.70;;;25.10;99.90;;;;;;4976185;28;20424;-69
2022/06/05 14:35:16;;;;;;;2.70;1.87;;;25.00;99.90;;;;;;4975550;28;20983;-65
2022/06/05 14:37:58;;;;;;;1.30;1.20;;;24.80;99.90;;;;;;4976334;28;20518;-66
2022/06/05 14:40:46;;;;;;;1.37;1.37;;;24.60;99.90;;;;;;4975986;28;20378;-66
2022/06/05 14:43:15;;;;;;;1.63;1.53;;;24.40;99.90;;;;;;4975304;28;20427;-66
2022/06/05 14:45:49;;;;;;;1.40;1.30;;;24.20;99.90;;;;;;4975914;28;20491;-68
2022/06/05 14:48:47;;;;;;;1.00;0.97;;;24.00;99.90;;;;;;4976151;28;20395;-66
2022/06/05 14:51:47;;;;;;;1.73;1.40;;;23.80;99.90;;;;;;4975089;28;20427;-68
2022/06/05 14:57:51;;;;;;;1.20;1.20;;;23.40;99.90;;;;;;4975032;28;20438;-67
2022/06/05 15:00:19;;;;;;;2.13;1.70;;;22.80;99.90;;;;;;4975492;28;20767;-66
2022/06/05 15:02:54;;;;;;;1.27;1.23;;;22.70;99.90;;;;;;4975181;28;20408;-67
2022/06/05 15:05:22;;;;;;;1.43;1.33;;;22.60;99.90;;;;;;4975340;28;20419;-67
2022/06/05 15:07:55;;;;;;;1.30;1.20;;;22.40;99.90;;;;;;4975448;28;20418;-68
2022/06/05 15:10:37;;;;;;;1.00;1.00;;;22.30;99.90;;;;;;4975545;28;20589;-66
2022/06/05 15:13:13;;;;;;;1.50;1.40;;;22.30;99.90;;;;;;4975058;28;20459;-68
2022/06/05 15:15:47;;;;;;;1.40;1.30;;;22.30;99.90;;;;;;4975609;28;20460;-67
2022/06/05 15:18:13;;;;;;;1.10;1.00;;;22.40;99.90;;;;;;4974065;28;20406;-67
2022/06/05 15:21:17;;;;;;;1.03;0.93;;;22.50;99.90;;;;;;4974607;28;20403;-67
2022/06/05 15:24:05;;;;;;;0.97;0.97;;;22.60;99.90;;;;;;4934072;29;20224;-67
2022/06/05 15:26:33;;;;;;;4.40;1.60;;;22.70;99.90;;;;;;4934405;29;20426;-67
2022/06/05 15:29:18;;;;;;;1.07;1.07;;;22.80;99.90;;;;;;4960294;28;20513;-67
2022/06/05 15:32:06;;;;;;;1.07;1.07;;;22.80;99.90;;;;;;4974822;28;20452;-66
2022/06/05 15:34:49;;;;;;;1.30;1.20;;;22.70;99.90;;;;;;4974215;28;20473;-67
2022/06/05 15:37:37;;;;;;;1.30;1.20;;;22.60;99.90;;;;;;4975012;28;20377;-66
2022/06/05 15:40:16;;;;;;;1.50;1.30;;;22.60;99.90;;;;;;4975048;28;20463;-68
2022/06/05 15:43:04;;;;;;;3.40;3.20;;;22.50;99.90;;;;;;4974346;28;20882;-68
2022/06/05 15:45:29;;;;;;;3.00;2.80;;;22.40;99.90;;;;;;4974448;28;20485;-67
2022/06/05 15:48:39;;;;;;;3.37;2.10;;;22.10;99.90;;;;;;4974812;28;20838;-66
2022/06/05 15:51:32;;;;;;;6.70;6.30;;;21.60;99.90;;;;;;4933390;28;20275;-68
2022/06/05 15:54:04;;;;;;;2.03;1.93;;;21.10;99.90;;;;;;4954951;28;20435;-69
2022/06/05 15:56:47;;;;;;;3.40;3.07;;;20.80;99.90;;;;;;4955813;28;20418;-67
2022/06/05 15:59:50;;;;;;;3.67;2.40;;;20.40;99.90;;;;;;4955428;28;20408;-68
2022/06/05 16:02:21;;;;;;;2.97;2.30;;;20.10;99.90;;;;;;4955222;28;20771;-68
2022/06/05 16:04:51;;;;;;;1.50;1.40;;;19.70;99.90;;;;;;4969375;28;20509;-65
2022/06/05 16:07:22;;;;;;;2.73;2.40;;;19.50;99.90;;;;;;4974655;28;20390;-66
2022/06/05 16:10:11;;;;;;;7.93;3.13;;;19.20;99.90;;;;;;4974746;28;20873;-65
2022/06/05 16:12:40;;;;;;;1.53;1.43;;;19.10;99.90;;;;;;4974336;28;20394;-65
2022/06/05 16:15:17;;;;;;;2.43;2.23;;;18.90;99.90;;;;;;4974418;28;20785;-65
2022/06/05 16:18:09;;;;;;;1.73;1.63;;;18.90;99.90;;;;;;4974416;28;20399;-65
2022/06/05 16:20:51;;;;;;;2.00;1.60;;;18.80;99.90;;;;;;4969277;28;20404;-68
2022/06/05 16:23:27;;;;;;;10.37;7.10;;;18.70;99.90;;;;;;4974269;28;20828;-67
2022/06/05 16:26:20;;;;;;;7.80;6.03;;;18.70;99.90;;;;;;4974506;28;20823;-66
2022/06/05 16:28:50;;;;;;;1.77;1.67;;;18.70;99.90;;;;;;4976641;28;20747;-66
2022/06/05 16:31:18;;;;;;;1.43;1.30;;;18.70;99.90;;;;;;4980321;28;20409;-68
2022/06/05 16:33:47;;;;;;;7.73;5.97;;;18.70;99.90;;;;;;4980273;28;20453;-66
2022/06/05 16:39:29;;;;;;;5.37;4.57;;;18.80;99.90;;;;;;4980871;28;20823;-66
2022/06/05 16:42:05;;;;;;;5.87;4.90;;;18.80;99.90;;;;;;4980919;28;20394;-67
2022/06/05 16:45:07;;;;;;;7.00;5.47;;;18.90;99.90;;;;;;4979182;28;20417;-66
2022/06/05 16:47:44;;;;;;;2.60;2.40;;;19.00;99.90;;;;;;4959776;28;20403;-68
2022/06/05 16:50:13;;;;;;;2.00;1.90;;;19.00;99.90;;;;;;4981060;28;20407;-67
2022/06/05 16:52:42;;;;;;;2.30;2.10;;;19.10;99.90;;;;;;4980359;28;20388;-66
2022/06/05 16:55:22;;;;;;;3.27;2.10;;;19.10;99.90;;;;;;4980636;28;20521;-67
2022/06/05 16:57:49;;;;;;;2.47;2.00;;;19.20;99.90;;;;;;4980957;28;20410;-67
2022/06/05 17:00:19;;;;;;;1.70;1.60;;;19.30;99.90;;;;;;4980246;28;20790;-68
2022/06/05 17:02:59;;;;;;;1.37;1.27;;;19.50;99.90;;;;;;4980093;28;20403;-67
2022/06/05 17:05:30;;;;;;;1.90;1.80;;;19.50;99.90;;;;;;4980490;28;20482;-67
2022/06/05 17:08:00;;;;;;;2.17;2.07;;;19.60;99.90;;;;;;4980548;28;20427;-68
2022/06/05 17:10:30;;;;;;;1.90;1.37;;;19.60;99.90;;;;;;4980328;28;20423;-69
2022/06/05 17:13:07;;;;;;;6.10;4.77;;;19.60;99.90;;;;;;4980017;28;20423;-68
2022/06/05 17:15:49;;;;;;;1.43;1.33;;;19.70;99.90;;;;;;4979843;28;20977;-67
2022/06/05 17:18:21;;;;;;;1.27;1.27;;;19.60;99.90;;;;;;4980571;28;20879;-69
2022/06/05 17:20:54;;;;;;;1.00;1.00;;;19.70;99.90;;;;;;4980452;28;20386;-69
2022/06/05 17:23:20;;;;;;;1.37;1.27;;;19.70;99.90;;;;;;4979913;28;20440;-69
2022/06/05 17:26:35;;;;;;;0.90;0.90;;;19.70;99.90;;;;;;4980441;28;20918;-69
2022/06/05 17:29:23;;;;;;;0.97;0.97;;;19.70;99.90;;;;;;4970683;28;20427;-68
2022/06/05 17:32:12;;;;;;;1.07;1.07;;;19.70;99.90;;;;;;4980166;28;20394;-67
2022/06/05 17:34:48;;;;;;;1.13;1.10;;;19.70;99.90;;;;;;4980406;28;20517;-67
2022/06/05 17:37:19;;;;;;;1.30;1.20;;;19.70;99.90;;;;;;4980239;28;20394;-67
2022/06/05 17:39:56;;;;;;;1.30;1.20;;;19.80;99.90;;;;;;4979627;28;20384;-68
2022/06/05 17:42:33;;;;;;;1.00;0.90;;;19.90;99.90;;;;;;4976724;28;20378;-66
2022/06/05 17:44:59;;;;;;;1.53;1.10;;;19.90;99.90;;;;;;4976735;28;20798;-68
2022/06/05 17:47:53;;;;;;;1.50;1.40;;;20.00;99.90;;;;;;4977092;28;20387;-66
2022/06/05 17:51:00;;;;;;;1.70;1.60;;;20.10;99.90;;;;;;4977276;28;20207;-66